sensor_id;sensor_type;location;lat;lon;timestamp;P1;durP1;ratioP1;P2;durP2;ratioP2
67140;SDS011;54058;52.010;5.546;2023-11-21T00:00:16;14.80;;;8.43;;
67140;SDS011;54058;52.010;5.546;2023-11-21T00:02:44;15.20;;;8.00;;
67140;SDS011;54058;52.010;5.546;2023-11-21T00:05:11;13.00;;;7.18;;
67140;SDS011;54058;52.010;5.546;2023-11-21T00:07:39;12.38;;;7.40;;
67140;SDS011;54058;52.010;5.546;2023-11-21T00:10:05;20.40;;;8.27;;
67140;SDS011;54058;52.010;5.546;2023-11-21T00:12:31;20.30;;;7.73;;
67140;SDS011;54058;52.010;5.546;2023-11-21T00:14:58;15.80;;;8.05;;
67140;SDS011;54058;52.010;5.546;2023-11-21T00:17:24;15.43;;;8.10;;
67140;SDS011;54058;52.010;5.546;2023-11-21T00:19:50;15.90;;;8.20;;
67140;SDS011;54058;52.010;5.546;2023-11-21T00:22:18;18.38;;;8.30;;
67140;SDS011;54058;52.010;5.546;2023-11-21T00:24:44;17.40;;;8.48;;
67140;SDS011;54058;52.010;5.546;2023-11-21T00:27:11;17.30;;;8.30;;
67140;SDS011;54058;52.010;5.546;2023-11-21T00:29:36;14.27;;;7.97;;
67140;SDS011;54058;52.010;5.546;2023-11-21T00:32:03;22.38;;;8.95;;
67140;SDS011;54058;52.010;5.546;2023-11-21T00:34:30;13.45;;;7.85;;
67140;SDS011;54058;52.010;5.546;2023-11-21T00:36:56;20.55;;;8.23;;
67140;SDS011;54058;52.010;5.546;2023-11-21T00:39:22;15.13;;;7.80;;
67140;SDS011;54058;52.010;5.546;2023-11-21T00:41:48;18.00;;;7.93;;
67140;SDS011;54058;52.010;5.546;2023-11-21T00:44:14;13.95;;;7.88;;
67140;SDS011;54058;52.010;5.546;2023-11-21T00:46:40;20.70;;;8.02;;
67140;SDS011;54058;52.010;5.546;2023-11-21T00:49:06;15.30;;;8.15;;
67140;SDS011;54058;52.010;5.546;2023-11-21T00:51:32;14.63;;;6.65;;
67140;SDS011;54058;52.010;5.546;2023-11-21T00:53:58;15.70;;;8.30;;
67140;SDS011;54058;52.010;5.546;2023-11-21T00:56:24;16.75;;;7.30;;
67140;SDS011;54058;52.010;5.546;2023-11-21T00:58:49;16.02;;;7.82;;
67140;SDS011;54058;52.010;5.546;2023-11-21T01:03:47;11.95;;;6.72;;
67140;SDS011;54058;52.010;5.546;2023-11-21T01:06:13;15.38;;;7.75;;
67140;SDS011;54058;52.010;5.546;2023-11-21T01:08:39;16.15;;;7.35;;
67140;SDS011;54058;52.010;5.546;2023-11-21T01:11:05;14.88;;;7.88;;
67140;SDS011;54058;52.010;5.546;2023-11-21T01:13:33;17.90;;;7.00;;
67140;SDS011;54058;52.010;5.546;2023-11-21T01:16:00;20.30;;;7.57;;
67140;SDS011;54058;52.010;5.546;2023-11-21T01:18:26;14.07;;;6.90;;
67140;SDS011;54058;52.010;5.546;2023-11-21T01:20:52;17.80;;;7.85;;
67140;SDS011;54058;52.010;5.546;2023-11-21T01:23:18;13.27;;;7.43;;
67140;SDS011;54058;52.010;5.546;2023-11-21T01:25:44;16.27;;;7.82;;
67140;SDS011;54058;52.010;5.546;2023-11-21T01:28:10;14.75;;;7.38;;
67140;SDS011;54058;52.010;5.546;2023-11-21T01:30:36;15.40;;;7.55;;
67140;SDS011;54058;52.010;5.546;2023-11-21T01:33:02;15.40;;;7.63;;
67140;SDS011;54058;52.010;5.546;2023-11-21T01:35:28;13.73;;;7.47;;
67140;SDS011;54058;52.010;5.546;2023-11-21T01:37:54;12.18;;;6.38;;
67140;SDS011;54058;52.010;5.546;2023-11-21T01:40:19;11.85;;;6.75;;
67140;SDS011;54058;52.010;5.546;2023-11-21T01:42:46;13.35;;;7.70;;
67140;SDS011;54058;52.010;5.546;2023-11-21T01:45:12;19.80;;;7.75;;
67140;SDS011;54058;52.010;5.546;2023-11-21T01:47:38;14.75;;;7.20;;
67140;SDS011;54058;52.010;5.546;2023-11-21T01:50:06;16.27;;;7.22;;
67140;SDS011;54058;52.010;5.546;2023-11-21T01:55:04;17.17;;;7.22;;
67140;SDS011;54058;52.010;5.546;2023-11-21T01:57:33;14.80;;;6.78;;
67140;SDS011;54058;52.010;5.546;2023-11-21T01:59:59;24.60;;;7.65;;
67140;SDS011;54058;52.010;5.546;2023-11-21T02:02:40;13.82;;;7.78;;
67140;SDS011;54058;52.010;5.546;2023-11-21T02:05:07;15.68;;;7.97;;
67140;SDS011;54058;52.010;5.546;2023-11-21T02:07:34;11.88;;;6.95;;
67140;SDS011;54058;52.010;5.546;2023-11-21T02:10:00;16.10;;;7.75;;
67140;SDS011;54058;52.010;5.546;2023-11-21T02:12:26;20.65;;;7.88;;
67140;SDS011;54058;52.010;5.546;2023-11-21T02:14:52;16.70;;;7.55;;
67140;SDS011;54058;52.010;5.546;2023-11-21T02:17:18;13.93;;;7.95;;
67140;SDS011;54058;52.010;5.546;2023-11-21T02:19:44;14.73;;;8.48;;
67140;SDS011;54058;52.010;5.546;2023-11-21T02:22:09;16.45;;;7.28;;
67140;SDS011;54058;52.010;5.546;2023-11-21T02:24:37;16.23;;;7.05;;
67140;SDS011;54058;52.010;5.546;2023-11-21T02:27:02;12.57;;;7.15;;
67140;SDS011;54058;52.010;5.546;2023-11-21T02:29:28;14.70;;;6.57;;
67140;SDS011;54058;52.010;5.546;2023-11-21T02:31:54;13.70;;;7.13;;
67140;SDS011;54058;52.010;5.546;2023-11-21T02:34:20;11.07;;;6.93;;
67140;SDS011;54058;52.010;5.546;2023-11-21T02:36:46;16.02;;;7.63;;
67140;SDS011;54058;52.010;5.546;2023-11-21T02:39:14;17.95;;;7.72;;
67140;SDS011;54058;52.010;5.546;2023-11-21T02:41:43;21.52;;;8.10;;
67140;SDS011;54058;52.010;5.546;2023-11-21T02:44:09;16.42;;;8.05;;
67140;SDS011;54058;52.010;5.546;2023-11-21T02:46:35;15.60;;;8.50;;
67140;SDS011;54058;52.010;5.546;2023-11-21T02:49:02;13.60;;;8.23;;
67140;SDS011;54058;52.010;5.546;2023-11-21T02:51:28;17.08;;;8.65;;
67140;SDS011;54058;52.010;5.546;2023-11-21T02:53:55;16.50;;;8.43;;
67140;SDS011;54058;52.010;5.546;2023-11-21T02:56:24;13.63;;;8.18;;
67140;SDS011;54058;52.010;5.546;2023-11-21T02:58:50;12.80;;;7.72;;
67140;SDS011;54058;52.010;5.546;2023-11-21T03:01:16;12.32;;;7.68;;
67140;SDS011;54058;52.010;5.546;2023-11-21T03:03:42;13.70;;;7.80;;
67140;SDS011;54058;52.010;5.546;2023-11-21T03:06:07;14.30;;;7.43;;
67140;SDS011;54058;52.010;5.546;2023-11-21T03:08:33;14.32;;;7.75;;
67140;SDS011;54058;52.010;5.546;2023-11-21T03:10:59;13.68;;;7.93;;
67140;SDS011;54058;52.010;5.546;2023-11-21T03:13:25;14.82;;;8.02;;
67140;SDS011;54058;52.010;5.546;2023-11-21T03:15:51;15.55;;;8.45;;
67140;SDS011;54058;52.010;5.546;2023-11-21T03:18:17;12.98;;;7.75;;
67140;SDS011;54058;52.010;5.546;2023-11-21T03:20:43;16.88;;;8.13;;
67140;SDS011;54058;52.010;5.546;2023-11-21T03:23:11;16.55;;;8.13;;
67140;SDS011;54058;52.010;5.546;2023-11-21T03:25:37;15.40;;;7.95;;
67140;SDS011;54058;52.010;5.546;2023-11-21T03:28:02;17.52;;;7.97;;
67140;SDS011;54058;52.010;5.546;2023-11-21T03:30:28;13.60;;;7.35;;
67140;SDS011;54058;52.010;5.546;2023-11-21T03:32:54;11.93;;;6.20;;
67140;SDS011;54058;52.010;5.546;2023-11-21T03:35:20;13.25;;;6.82;;
67140;SDS011;54058;52.010;5.546;2023-11-21T03:37:46;14.80;;;7.07;;
67140;SDS011;54058;52.010;5.546;2023-11-21T03:40:14;13.18;;;6.72;;
67140;SDS011;54058;52.010;5.546;2023-11-21T03:42:40;14.02;;;6.90;;
67140;SDS011;54058;52.010;5.546;2023-11-21T03:45:07;14.70;;;7.03;;
67140;SDS011;54058;52.010;5.546;2023-11-21T03:47:33;14.48;;;6.28;;
67140;SDS011;54058;52.010;5.546;2023-11-21T03:49:59;12.80;;;7.03;;
67140;SDS011;54058;52.010;5.546;2023-11-21T03:52:25;15.43;;;6.60;;
67140;SDS011;54058;52.010;5.546;2023-11-21T03:54:52;14.63;;;6.97;;
67140;SDS011;54058;52.010;5.546;2023-11-21T03:57:17;20.70;;;7.75;;
67140;SDS011;54058;52.010;5.546;2023-11-21T03:59:43;18.33;;;7.40;;
67140;SDS011;54058;52.010;5.546;2023-11-21T04:02:09;17.90;;;7.30;;
67140;SDS011;54058;52.010;5.546;2023-11-21T04:04:37;17.48;;;7.18;;
67140;SDS011;54058;52.010;5.546;2023-11-21T04:07:03;15.80;;;7.32;;
67140;SDS011;54058;52.010;5.546;2023-11-21T04:09:29;12.07;;;7.07;;
67140;SDS011;54058;52.010;5.546;2023-11-21T04:11:55;19.63;;;7.85;;
67140;SDS011;54058;52.010;5.546;2023-11-21T04:14:22;21.50;;;8.07;;
67140;SDS011;54058;52.010;5.546;2023-11-21T04:19:13;13.43;;;6.63;;
67140;SDS011;54058;52.010;5.546;2023-11-21T04:21:40;15.60;;;7.65;;
67140;SDS011;54058;52.010;5.546;2023-11-21T04:24:06;17.02;;;7.15;;
67140;SDS011;54058;52.010;5.546;2023-11-21T04:26:32;20.30;;;8.07;;
67140;SDS011;54058;52.010;5.546;2023-11-21T04:28:58;15.27;;;7.68;;
67140;SDS011;54058;52.010;5.546;2023-11-21T04:31:23;20.85;;;8.18;;
67140;SDS011;54058;52.010;5.546;2023-11-21T04:33:49;15.93;;;7.72;;
67140;SDS011;54058;52.010;5.546;2023-11-21T04:36:15;17.45;;;7.85;;
67140;SDS011;54058;52.010;5.546;2023-11-21T04:38:40;20.02;;;7.95;;
67140;SDS011;54058;52.010;5.546;2023-11-21T04:41:06;21.40;;;7.50;;
67140;SDS011;54058;52.010;5.546;2023-11-21T04:43:32;15.90;;;6.95;;
67140;SDS011;54058;52.010;5.546;2023-11-21T04:45:58;16.85;;;7.38;;
67140;SDS011;54058;52.010;5.546;2023-11-21T04:48:23;19.33;;;8.10;;
67140;SDS011;54058;52.010;5.546;2023-11-21T04:50:50;15.70;;;7.17;;
67140;SDS011;54058;52.010;5.546;2023-11-21T04:53:16;14.48;;;6.97;;
67140;SDS011;54058;52.010;5.546;2023-11-21T04:55:42;11.77;;;6.15;;
67140;SDS011;54058;52.010;5.546;2023-11-21T04:58:09;14.75;;;7.63;;
67140;SDS011;54058;52.010;5.546;2023-11-21T05:00:35;16.73;;;6.65;;
67140;SDS011;54058;52.010;5.546;2023-11-21T05:03:01;15.93;;;6.85;;
67140;SDS011;54058;52.010;5.546;2023-11-21T05:05:28;15.77;;;6.22;;
67140;SDS011;54058;52.010;5.546;2023-11-21T05:07:54;12.90;;;6.53;;
67140;SDS011;54058;52.010;5.546;2023-11-21T05:10:20;20.02;;;7.22;;
67140;SDS011;54058;52.010;5.546;2023-11-21T05:12:47;16.42;;;7.43;;
67140;SDS011;54058;52.010;5.546;2023-11-21T05:15:15;19.42;;;7.43;;
67140;SDS011;54058;52.010;5.546;2023-11-21T05:17:45;15.90;;;6.60;;
67140;SDS011;54058;52.010;5.546;2023-11-21T05:20:14;12.95;;;6.28;;
67140;SDS011;54058;52.010;5.546;2023-11-21T05:22:45;14.50;;;6.80;;
67140;SDS011;54058;52.010;5.546;2023-11-21T05:25:14;16.15;;;7.07;;
67140;SDS011;54058;52.010;5.546;2023-11-21T05:27:41;15.35;;;6.43;;
67140;SDS011;54058;52.010;5.546;2023-11-21T05:30:07;16.13;;;6.45;;
67140;SDS011;54058;52.010;5.546;2023-11-21T05:32:37;13.32;;;6.57;;
67140;SDS011;54058;52.010;5.546;2023-11-21T05:35:03;17.77;;;7.18;;
67140;SDS011;54058;52.010;5.546;2023-11-21T05:37:34;17.70;;;7.18;;
67140;SDS011;54058;52.010;5.546;2023-11-21T05:40:00;15.50;;;6.70;;
67140;SDS011;54058;52.010;5.546;2023-11-21T05:42:30;15.45;;;7.35;;
67140;SDS011;54058;52.010;5.546;2023-11-21T05:44:59;26.25;;;8.13;;
67140;SDS011;54058;52.010;5.546;2023-11-21T05:47:34;19.15;;;8.10;;
67140;SDS011;54058;52.010;5.546;2023-11-21T05:50:05;23.67;;;7.80;;
67140;SDS011;54058;52.010;5.546;2023-11-21T05:52:35;11.55;;;6.57;;
67140;SDS011;54058;52.010;5.546;2023-11-21T05:55:02;11.80;;;6.60;;
67140;SDS011;54058;52.010;5.546;2023-11-21T05:57:30;17.33;;;6.80;;
67140;SDS011;54058;52.010;5.546;2023-11-21T05:59:55;14.88;;;6.90;;
67140;SDS011;54058;52.010;5.546;2023-11-21T06:02:21;18.77;;;7.07;;
67140;SDS011;54058;52.010;5.546;2023-11-21T06:04:47;18.85;;;6.60;;
67140;SDS011;54058;52.010;5.546;2023-11-21T06:07:12;23.15;;;7.40;;
67140;SDS011;54058;52.010;5.546;2023-11-21T06:09:38;14.00;;;6.60;;
67140;SDS011;54058;52.010;5.546;2023-11-21T06:12:04;13.73;;;7.25;;
67140;SDS011;54058;52.010;5.546;2023-11-21T06:14:30;16.60;;;7.10;;
67140;SDS011;54058;52.010;5.546;2023-11-21T06:16:58;15.07;;;7.45;;
67140;SDS011;54058;52.010;5.546;2023-11-21T06:19:24;11.48;;;6.28;;
67140;SDS011;54058;52.010;5.546;2023-11-21T06:21:49;13.13;;;6.68;;
67140;SDS011;54058;52.010;5.546;2023-11-21T06:24:15;15.38;;;7.40;;
67140;SDS011;54058;52.010;5.546;2023-11-21T06:26:41;15.73;;;7.03;;
67140;SDS011;54058;52.010;5.546;2023-11-21T06:29:09;14.85;;;6.90;;
67140;SDS011;54058;52.010;5.546;2023-11-21T06:31:36;17.33;;;7.13;;
67140;SDS011;54058;52.010;5.546;2023-11-21T06:34:01;20.25;;;7.28;;
67140;SDS011;54058;52.010;5.546;2023-11-21T06:36:28;17.58;;;7.70;;
67140;SDS011;54058;52.010;5.546;2023-11-21T06:38:54;14.32;;;7.13;;
67140;SDS011;54058;52.010;5.546;2023-11-21T06:41:20;17.30;;;8.27;;
67140;SDS011;54058;52.010;5.546;2023-11-21T06:43:45;21.88;;;7.95;;
67140;SDS011;54058;52.010;5.546;2023-11-21T06:46:12;20.08;;;7.82;;
67140;SDS011;54058;52.010;5.546;2023-11-21T06:48:44;15.82;;;8.30;;
67140;SDS011;54058;52.010;5.546;2023-11-21T06:51:10;18.85;;;8.57;;
67140;SDS011;54058;52.010;5.546;2023-11-21T06:53:36;20.73;;;8.27;;
67140;SDS011;54058;52.010;5.546;2023-11-21T06:56:02;24.17;;;8.88;;
67140;SDS011;54058;52.010;5.546;2023-11-21T06:58:28;19.38;;;7.93;;
67140;SDS011;54058;52.010;5.546;2023-11-21T07:00:54;16.95;;;7.95;;
67140;SDS011;54058;52.010;5.546;2023-11-21T07:03:19;16.38;;;8.77;;
67140;SDS011;54058;52.010;5.546;2023-11-21T07:05:45;24.25;;;10.93;;
67140;SDS011;54058;52.010;5.546;2023-11-21T07:08:11;20.33;;;8.63;;
67140;SDS011;54058;52.010;5.546;2023-11-21T07:10:37;19.02;;;8.45;;
67140;SDS011;54058;52.010;5.546;2023-11-21T07:13:03;16.40;;;8.40;;
67140;SDS011;54058;52.010;5.546;2023-11-21T07:15:29;17.88;;;9.20;;
67140;SDS011;54058;52.010;5.546;2023-11-21T07:17:55;19.08;;;8.70;;
67140;SDS011;54058;52.010;5.546;2023-11-21T07:20:20;16.00;;;8.07;;
67140;SDS011;54058;52.010;5.546;2023-11-21T07:22:46;17.38;;;8.82;;
67140;SDS011;54058;52.010;5.546;2023-11-21T07:25:12;16.35;;;8.32;;
67140;SDS011;54058;52.010;5.546;2023-11-21T07:27:38;15.35;;;8.82;;
67140;SDS011;54058;52.010;5.546;2023-11-21T07:30:04;13.38;;;8.02;;
67140;SDS011;54058;52.010;5.546;2023-11-21T07:32:31;17.45;;;8.38;;
67140;SDS011;54058;52.010;5.546;2023-11-21T07:34:56;16.73;;;8.13;;
67140;SDS011;54058;52.010;5.546;2023-11-21T07:37:24;16.77;;;7.95;;
67140;SDS011;54058;52.010;5.546;2023-11-21T07:39:53;17.73;;;8.63;;
67140;SDS011;54058;52.010;5.546;2023-11-21T07:42:21;16.90;;;8.10;;
67140;SDS011;54058;52.010;5.546;2023-11-21T07:44:49;23.23;;;8.65;;
67140;SDS011;54058;52.010;5.546;2023-11-21T07:47:15;12.40;;;7.38;;
67140;SDS011;54058;52.010;5.546;2023-11-21T07:49:41;16.05;;;7.45;;
67140;SDS011;54058;52.010;5.546;2023-11-21T07:52:09;12.68;;;7.20;;
67140;SDS011;54058;52.010;5.546;2023-11-21T07:54:41;11.57;;;6.93;;
67140;SDS011;54058;52.010;5.546;2023-11-21T07:57:07;18.35;;;8.20;;
67140;SDS011;54058;52.010;5.546;2023-11-21T07:59:32;13.32;;;6.82;;
67140;SDS011;54058;52.010;5.546;2023-11-21T08:01:58;17.63;;;8.02;;
67140;SDS011;54058;52.010;5.546;2023-11-21T08:04:24;21.45;;;8.27;;
67140;SDS011;54058;52.010;5.546;2023-11-21T08:06:49;16.60;;;7.90;;
67140;SDS011;54058;52.010;5.546;2023-11-21T08:09:16;20.15;;;7.93;;
67140;SDS011;54058;52.010;5.546;2023-11-21T08:11:42;18.17;;;8.65;;
67140;SDS011;54058;52.010;5.546;2023-11-21T08:14:08;23.25;;;8.43;;
67140;SDS011;54058;52.010;5.546;2023-11-21T08:16:34;11.93;;;6.97;;
67140;SDS011;54058;52.010;5.546;2023-11-21T08:18:59;17.55;;;7.70;;
67140;SDS011;54058;52.010;5.546;2023-11-21T08:21:26;19.67;;;8.18;;
67140;SDS011;54058;52.010;5.546;2023-11-21T08:23:54;12.45;;;7.32;;
67140;SDS011;54058;52.010;5.546;2023-11-21T08:26:22;14.07;;;7.25;;
67140;SDS011;54058;52.010;5.546;2023-11-21T08:28:48;15.98;;;6.93;;
67140;SDS011;54058;52.010;5.546;2023-11-21T08:31:14;17.80;;;7.32;;
67140;SDS011;54058;52.010;5.546;2023-11-21T08:33:40;14.23;;;6.25;;
67140;SDS011;54058;52.010;5.546;2023-11-21T08:36:06;14.75;;;6.13;;
67140;SDS011;54058;52.010;5.546;2023-11-21T08:38:36;12.95;;;6.30;;
67140;SDS011;54058;52.010;5.546;2023-11-21T08:41:04;12.57;;;6.32;;
67140;SDS011;54058;52.010;5.546;2023-11-21T08:43:32;11.10;;;6.40;;
67140;SDS011;54058;52.010;5.546;2023-11-21T08:46:04;15.13;;;7.53;;
67140;SDS011;54058;52.010;5.546;2023-11-21T08:48:31;18.50;;;7.82;;
67140;SDS011;54058;52.010;5.546;2023-11-21T08:50:56;17.88;;;7.90;;
67140;SDS011;54058;52.010;5.546;2023-11-21T08:53:22;20.30;;;8.00;;
67140;SDS011;54058;52.010;5.546;2023-11-21T08:55:48;22.13;;;8.40;;
67140;SDS011;54058;52.010;5.546;2023-11-21T08:58:15;24.92;;;8.57;;
67140;SDS011;54058;52.010;5.546;2023-11-21T09:00:41;20.17;;;8.63;;
67140;SDS011;54058;52.010;5.546;2023-11-21T09:03:07;23.65;;;8.60;;
67140;SDS011;54058;52.010;5.546;2023-11-21T09:05:37;19.40;;;8.27;;
67140;SDS011;54058;52.010;5.546;2023-11-21T09:08:05;18.83;;;8.32;;
67140;SDS011;54058;52.010;5.546;2023-11-21T09:10:32;17.40;;;8.20;;
67140;SDS011;54058;52.010;5.546;2023-11-21T09:13:01;18.52;;;8.07;;
67140;SDS011;54058;52.010;5.546;2023-11-21T09:15:27;13.45;;;8.13;;
67140;SDS011;54058;52.010;5.546;2023-11-21T09:17:53;18.40;;;7.57;;
67140;SDS011;54058;52.010;5.546;2023-11-21T09:20:19;16.05;;;8.18;;
67140;SDS011;54058;52.010;5.546;2023-11-21T09:22:47;13.82;;;7.65;;
67140;SDS011;54058;52.010;5.546;2023-11-21T09:25:13;18.10;;;7.30;;
67140;SDS011;54058;52.010;5.546;2023-11-21T09:27:39;18.13;;;8.40;;
67140;SDS011;54058;52.010;5.546;2023-11-21T09:30:08;17.42;;;8.00;;
67140;SDS011;54058;52.010;5.546;2023-11-21T09:32:35;17.08;;;8.55;;
67140;SDS011;54058;52.010;5.546;2023-11-21T09:37:28;15.23;;;8.48;;
67140;SDS011;54058;52.010;5.546;2023-11-21T09:39:55;16.90;;;8.80;;
67140;SDS011;54058;52.010;5.546;2023-11-21T09:42:25;16.50;;;8.13;;
67140;SDS011;54058;52.010;5.546;2023-11-21T09:47:40;15.55;;;8.77;;
67140;SDS011;54058;52.010;5.546;2023-11-21T09:50:08;17.95;;;9.38;;
67140;SDS011;54058;52.010;5.546;2023-11-21T09:53:19;20.13;;;10.13;;
67140;SDS011;54058;52.010;5.546;2023-11-21T09:55:45;20.45;;;9.63;;
67140;SDS011;54058;52.010;5.546;2023-11-21T09:58:12;16.85;;;9.30;;
67140;SDS011;54058;52.010;5.546;2023-11-21T10:03:09;15.13;;;8.05;;
67140;SDS011;54058;52.010;5.546;2023-11-21T10:08:02;18.33;;;9.63;;
67140;SDS011;54058;52.010;5.546;2023-11-21T10:10:32;23.58;;;10.52;;
67140;SDS011;54058;52.010;5.546;2023-11-21T10:12:57;21.85;;;10.02;;
67140;SDS011;54058;52.010;5.546;2023-11-21T10:15:31;17.55;;;9.32;;
67140;SDS011;54058;52.010;5.546;2023-11-21T10:17:59;20.90;;;10.50;;
67140;SDS011;54058;52.010;5.546;2023-11-21T10:20:31;19.15;;;10.52;;
67140;SDS011;54058;52.010;5.546;2023-11-21T10:23:03;20.92;;;11.02;;
67140;SDS011;54058;52.010;5.546;2023-11-21T10:25:29;18.93;;;9.73;;
67140;SDS011;54058;52.010;5.546;2023-11-21T10:27:59;18.20;;;10.27;;
67140;SDS011;54058;52.010;5.546;2023-11-21T10:30:33;19.02;;;10.27;;
67140;SDS011;54058;52.010;5.546;2023-11-21T10:33:06;19.80;;;10.82;;
67140;SDS011;54058;52.010;5.546;2023-11-21T10:35:45;19.92;;;10.32;;
67140;SDS011;54058;52.010;5.546;2023-11-21T10:38:13;18.40;;;10.23;;
67140;SDS011;54058;52.010;5.546;2023-11-21T10:40:42;21.75;;;10.52;;
67140;SDS011;54058;52.010;5.546;2023-11-21T10:43:09;17.23;;;10.43;;
67140;SDS011;54058;52.010;5.546;2023-11-21T10:45:39;23.75;;;10.65;;
67140;SDS011;54058;52.010;5.546;2023-11-21T10:48:05;20.05;;;10.98;;
67140;SDS011;54058;52.010;5.546;2023-11-21T10:50:35;20.80;;;10.52;;
67140;SDS011;54058;52.010;5.546;2023-11-21T10:53:05;20.65;;;10.98;;
67140;SDS011;54058;52.010;5.546;2023-11-21T10:55:34;20.45;;;10.73;;
67140;SDS011;54058;52.010;5.546;2023-11-21T10:58:00;19.40;;;9.98;;
67140;SDS011;54058;52.010;5.546;2023-11-21T11:00:28;21.25;;;11.10;;
67140;SDS011;54058;52.010;5.546;2023-11-21T11:02:54;18.83;;;10.50;;
67140;SDS011;54058;52.010;5.546;2023-11-21T11:05:21;21.52;;;9.63;;
67140;SDS011;54058;52.010;5.546;2023-11-21T11:07:52;15.25;;;9.52;;
67140;SDS011;54058;52.010;5.546;2023-11-21T11:10:26;19.33;;;10.13;;
67140;SDS011;54058;52.010;5.546;2023-11-21T11:12:54;18.52;;;10.38;;
67140;SDS011;54058;52.010;5.546;2023-11-21T11:15:20;17.33;;;9.55;;
67140;SDS011;54058;52.010;5.546;2023-11-21T11:17:46;19.20;;;8.70;;
67140;SDS011;54058;52.010;5.546;2023-11-21T11:20:14;16.63;;;8.27;;
67140;SDS011;54058;52.010;5.546;2023-11-21T11:29:52;17.38;;;8.93;;
67140;SDS011;54058;52.010;5.546;2023-11-21T11:37:25;14.50;;;5.88;;
67140;SDS011;54058;52.010;5.546;2023-11-21T11:39:51;10.02;;;5.70;;
67140;SDS011;54058;52.010;5.546;2023-11-21T11:42:17;11.07;;;6.28;;
67140;SDS011;54058;52.010;5.546;2023-11-21T11:47:14;11.55;;;6.72;;
67140;SDS011;54058;52.010;5.546;2023-11-21T11:55:09;12.32;;;5.72;;
67140;SDS011;54058;52.010;5.546;2023-11-21T11:57:36;15.73;;;6.43;;
67140;SDS011;54058;52.010;5.546;2023-11-21T12:02:36;9.40;;;5.07;;
67140;SDS011;54058;52.010;5.546;2023-11-21T12:05:13;9.18;;;5.18;;
67140;SDS011;54058;52.010;5.546;2023-11-21T12:08:10;9.60;;;4.85;;
67140;SDS011;54058;52.010;5.546;2023-11-21T12:10:37;9.90;;;6.00;;
67140;SDS011;54058;52.010;5.546;2023-11-21T12:13:08;12.52;;;6.28;;
67140;SDS011;54058;52.010;5.546;2023-11-21T12:15:37;11.85;;;6.68;;
67140;SDS011;54058;52.010;5.546;2023-11-21T12:18:03;12.15;;;6.15;;
67140;SDS011;54058;52.010;5.546;2023-11-21T12:20:30;14.15;;;6.63;;
67140;SDS011;54058;52.010;5.546;2023-11-21T12:22:57;17.80;;;9.37;;
67140;SDS011;54058;52.010;5.546;2023-11-21T12:25:28;14.80;;;7.32;;
67140;SDS011;54058;52.010;5.546;2023-11-21T12:27:57;20.50;;;7.90;;
67140;SDS011;54058;52.010;5.546;2023-11-21T12:30:25;10.45;;;6.38;;
67140;SDS011;54058;52.010;5.546;2023-11-21T12:32:55;13.20;;;6.82;;
67140;SDS011;54058;52.010;5.546;2023-11-21T12:35:23;13.18;;;7.03;;
67140;SDS011;54058;52.010;5.546;2023-11-21T12:37:51;13.80;;;6.85;;
67140;SDS011;54058;52.010;5.546;2023-11-21T12:40:17;13.93;;;6.68;;
67140;SDS011;54058;52.010;5.546;2023-11-21T12:42:44;13.60;;;7.05;;
67140;SDS011;54058;52.010;5.546;2023-11-21T12:47:52;13.43;;;6.82;;
67140;SDS011;54058;52.010;5.546;2023-11-21T12:50:28;17.75;;;9.02;;
67140;SDS011;54058;52.010;5.546;2023-11-21T12:55:29;15.35;;;6.78;;
67140;SDS011;54058;52.010;5.546;2023-11-21T12:57:56;15.75;;;7.82;;
67140;SDS011;54058;52.010;5.546;2023-11-21T13:00:31;15.13;;;7.03;;
67140;SDS011;54058;52.010;5.546;2023-11-21T13:03:02;18.02;;;8.18;;
67140;SDS011;54058;52.010;5.546;2023-11-21T13:05:30;22.52;;;8.90;;
67140;SDS011;54058;52.010;5.546;2023-11-21T13:07:58;12.50;;;7.72;;
67140;SDS011;54058;52.010;5.546;2023-11-21T13:10:33;14.75;;;8.10;;
67140;SDS011;54058;52.010;5.546;2023-11-21T13:13:01;16.05;;;9.88;;
67140;SDS011;54058;52.010;5.546;2023-11-21T13:15:30;14.93;;;8.05;;
67140;SDS011;54058;52.010;5.546;2023-11-21T13:17:58;15.70;;;8.68;;
67140;SDS011;54058;52.010;5.546;2023-11-21T13:20:27;14.43;;;7.67;;
67140;SDS011;54058;52.010;5.546;2023-11-21T13:22:55;15.10;;;8.02;;
67140;SDS011;54058;52.010;5.546;2023-11-21T13:25:25;14.00;;;7.18;;
67140;SDS011;54058;52.010;5.546;2023-11-21T13:27:56;15.43;;;7.80;;
67140;SDS011;54058;52.010;5.546;2023-11-21T13:32:56;19.25;;;7.82;;
67140;SDS011;54058;52.010;5.546;2023-11-21T13:35:22;14.35;;;7.53;;
67140;SDS011;54058;52.010;5.546;2023-11-21T13:37:56;20.73;;;8.25;;
67140;SDS011;54058;52.010;5.546;2023-11-21T13:40:25;19.75;;;8.75;;
67140;SDS011;54058;52.010;5.546;2023-11-21T13:42:52;13.57;;;7.82;;
67140;SDS011;54058;52.010;5.546;2023-11-21T13:45:24;14.15;;;8.68;;
67140;SDS011;54058;52.010;5.546;2023-11-21T13:47:52;15.23;;;8.00;;
67140;SDS011;54058;52.010;5.546;2023-11-21T13:50:23;13.15;;;8.00;;
67140;SDS011;54058;52.010;5.546;2023-11-21T13:52:58;14.68;;;8.00;;
67140;SDS011;54058;52.010;5.546;2023-11-21T14:00:29;12.93;;;7.57;;
67140;SDS011;54058;52.010;5.546;2023-11-21T14:03:10;12.77;;;6.47;;
67140;SDS011;54058;52.010;5.546;2023-11-21T14:05:44;10.75;;;6.28;;
67140;SDS011;54058;52.010;5.546;2023-11-21T14:08:13;13.20;;;7.65;;
67140;SDS011;54058;52.010;5.546;2023-11-21T14:10:41;10.05;;;5.97;;
67140;SDS011;54058;52.010;5.546;2023-11-21T14:13:14;9.38;;;5.43;;
67140;SDS011;54058;52.010;5.546;2023-11-21T14:18:10;8.23;;;4.70;;
67140;SDS011;54058;52.010;5.546;2023-11-21T14:20:37;13.45;;;5.47;;
67140;SDS011;54058;52.010;5.546;2023-11-21T14:23:03;10.90;;;5.45;;
67140;SDS011;54058;52.010;5.546;2023-11-21T14:25:35;11.80;;;5.63;;
67140;SDS011;54058;52.010;5.546;2023-11-21T14:28:02;9.98;;;5.53;;
67140;SDS011;54058;52.010;5.546;2023-11-21T14:30:31;11.95;;;5.00;;
67140;SDS011;54058;52.010;5.546;2023-11-21T14:33:00;12.02;;;5.50;;
67140;SDS011;54058;52.010;5.546;2023-11-21T14:35:26;11.43;;;5.72;;
67140;SDS011;54058;52.010;5.546;2023-11-21T14:37:52;15.27;;;6.20;;
67140;SDS011;54058;52.010;5.546;2023-11-21T14:40:18;12.63;;;5.82;;
67140;SDS011;54058;52.010;5.546;2023-11-21T14:42:49;12.95;;;6.07;;
67140;SDS011;54058;52.010;5.546;2023-11-21T14:45:18;11.80;;;7.13;;
67140;SDS011;54058;52.010;5.546;2023-11-21T14:47:45;13.98;;;6.95;;
67140;SDS011;54058;52.010;5.546;2023-11-21T14:50:27;13.00;;;6.90;;
67140;SDS011;54058;52.010;5.546;2023-11-21T14:53:05;17.75;;;8.20;;
67140;SDS011;54058;52.010;5.546;2023-11-21T14:55:31;16.40;;;7.90;;
67140;SDS011;54058;52.010;5.546;2023-11-21T14:58:16;17.70;;;10.00;;
67140;SDS011;54058;52.010;5.546;2023-11-21T15:00:52;17.38;;;9.43;;
67140;SDS011;54058;52.010;5.546;2023-11-21T15:03:25;22.52;;;10.02;;
67140;SDS011;54058;52.010;5.546;2023-11-21T15:05:59;18.90;;;9.65;;
67140;SDS011;54058;52.010;5.546;2023-11-21T15:08:44;21.10;;;10.30;;
67140;SDS011;54058;52.010;5.546;2023-11-21T15:11:14;21.98;;;11.07;;
67140;SDS011;54058;52.010;5.546;2023-11-21T15:13:41;20.25;;;10.38;;
67140;SDS011;54058;52.010;5.546;2023-11-21T15:16:07;20.30;;;10.15;;
67140;SDS011;54058;52.010;5.546;2023-11-21T15:18:37;21.77;;;10.95;;
67140;SDS011;54058;52.010;5.546;2023-11-21T15:21:03;21.15;;;11.50;;
67140;SDS011;54058;52.010;5.546;2023-11-21T15:23:29;20.02;;;11.20;;
67140;SDS011;54058;52.010;5.546;2023-11-21T15:25:56;21.80;;;10.43;;
67140;SDS011;54058;52.010;5.546;2023-11-21T15:28:22;17.40;;;10.80;;
67140;SDS011;54058;52.010;5.546;2023-11-21T15:30:49;18.75;;;10.10;;